Alledonia, OH (43902)

4:37 AM EDT on August 03, 2015 (GMT -0400)
Jerusalem | | Change Station
CLOSE
Current Station
Personal Weather Station
Location: Jerusalem, OH
Elevation: 1253 ft
Nearby Weather Stations

Elev 1253 ft 39.86 °N, 81.11 °W | Updated 3 seconds ago

Clear
Clear
62.2 °F
Feels Like 62.2 °F
N
2.0
Wind Variable Wind from WSW
Gusts 3.0 mph

Today
High -- | Low -- °F
--% Chance of Precip.
Yesterday
High -- | Low -- °F
Precip. -- in
6:24 AM 8:35 PM
Waning Gibbous, 88% visible
Pressure 29.84 in
Visibility 10.0 miles
Clouds Clear
Dew Point 60 °F
Humidity 92%
Rainfall 0.00 in
Snow Depth Not available.
UV 0 out of 12
Pollen 7.00 out of 12
Air Quality Not available.
Flu Activity Not available.
METAR KHLG 030753Z AUTO 23008KT 10SM CLR 21/15 A2986 RMK AO2 SLP103 T02060150

More Conditions Fewer Conditions

Pressure 29.84 in
Visibility 10.0 miles
Clouds Clear
Dew Point 60 °F
Humidity 92%
Rainfall 0.00 in
Snow Depth Not available.
UV 0 out of 12
Pollen 7.00 out of 12
Air Quality Not available.
Flu Activity Not available.
METAR KHLG 030753Z AUTO 23008KT 10SM CLR 21/15 A2986 RMK AO2 SLP103 T02060150

More Conditions Fewer Conditions

10-Day Weather Forecast

×

Almanac

Astronomy

Aug. 03, 2015 Rise Set
Actual Time
Civil Twilight
Nautical Twilight
Astronomical Twilight
Moon
Length of Visible Light
Length of Day
Tomorrow will be .
, % of the Moon is Illuminated

Today's Extremes

State Highs State Lows

Community

WunderPhotos

Upload Photos

1,843,592 photos uploaded!

WunderBlogs® & News

Nearby

Air Quality

  Air Quality AQ Index Pollutant
Not available.

Snow Depth

Station Depth Elevation

Earthquake Activity

City Distance Mag. Time & Date
Minimum magnitude displayed is 2.5.

Coastal Water Temperatures

Place Temperature

Stations

Nearby Weather Stations

Station Location Temp. Windchill Dew Point Humidity Wind Precip. Elev Updated Type